Time;durP1;ratioP1;P1;durP2;ratioP2;P2;SDS_P1;SDS_P2;PMS_P1;PMS_P2;Temp;Humidity;BMP_temperature;BMP_pressure;BME280_temperature;BME280_humidity;BME280_pressure;Samples;Min_cycle;Max_cycle;Signal;HPM_P1;HPM_P2
2022/08/22 00:01:24;;;;;;;8.93;3.70;;;18.10;99.90;;;;;;5036413;28;20048;-69
2022/08/22 00:03:58;;;;;;;10.23;3.90;;;18.10;99.90;;;;;;5036126;28;20050;-68
2022/08/22 00:06:30;;;;;;;11.27;4.07;;;18.10;99.90;;;;;;5035989;28;20053;-69
2022/08/22 00:09:23;;;;;;;11.33;4.30;;;18.10;99.90;;;;;;5018537;28;20053;-69
2022/08/22 00:11:54;;;;;;;9.90;3.50;;;18.00;99.90;;;;;;5036781;28;20049;-68
2022/08/22 00:14:31;;;;;;;12.23;4.27;;;18.00;99.90;;;;;;5036538;28;20056;-68
2022/08/22 00:17:40;;;;;;;10.67;4.00;;;18.00;99.90;;;;;;5019542;28;20049;-68
2022/08/22 00:20:37;;;;;;;7.93;3.43;;;18.00;99.90;;;;;;5008720;28;20096;-68
2022/08/22 00:23:21;;;;;;;8.90;3.93;;;18.00;99.90;;;;;;5035828;28;20041;-68
2022/08/22 00:26:15;;;;;;;10.07;4.10;;;18.00;99.90;;;;;;5035908;28;20073;-68
2022/08/22 00:28:49;;;;;;;9.93;3.63;;;18.00;99.90;;;;;;5035692;28;20038;-68
2022/08/22 00:31:20;;;;;;;11.10;4.50;;;18.00;99.90;;;;;;5036218;28;20037;-68
2022/08/22 00:33:55;;;;;;;9.67;3.50;;;18.00;99.90;;;;;;5035589;28;20057;-69
2022/08/22 00:36:37;;;;;;;9.80;3.53;;;17.90;99.90;;;;;;5035571;28;20053;-69
2022/08/22 00:39:03;;;;;;;9.17;3.90;;;17.90;99.90;;;;;;5036064;28;20042;-69
2022/08/22 00:42:06;;;;;;;12.97;4.17;;;17.90;99.90;;;;;;5035446;28;20056;-69
2022/08/22 00:45:09;;;;;;;9.73;3.63;;;17.90;99.90;;;;;;5035335;28;20053;-68
2022/08/22 00:47:43;;;;;;;8.30;3.60;;;17.80;99.90;;;;;;5035292;28;20058;-69
2022/08/22 00:50:36;;;;;;;11.30;3.88;;;17.80;99.90;;;;;;5035860;28;20140;-69
2022/08/22 00:53:14;;;;;;;9.83;3.80;;;17.70;99.90;;;;;;5035182;28;20053;-69
2022/08/22 00:55:55;;;;;;;10.33;3.40;;;17.70;99.90;;;;;;5035400;28;20045;-69
2022/08/22 00:58:37;;;;;;;9.90;4.03;;;17.70;99.90;;;;;;5035099;28;20045;-67
2022/08/22 01:01:07;;;;;;;13.77;4.30;;;17.70;99.90;;;;;;5035050;28;20493;-68
2022/08/22 01:03:47;;;;;;;11.70;4.20;;;17.70;99.90;;;;;;5035773;28;20050;-69
2022/08/22 01:06:54;;;;;;;8.03;3.50;;;17.60;99.90;;;;;;5034586;28;20505;-69
2022/08/22 01:09:42;;;;;;;9.40;4.10;;;17.60;99.90;;;;;;4954397;29;20051;-68
2022/08/22 01:12:14;;;;;;;10.53;3.93;;;17.60;99.90;;;;;;5029564;28;20129;-68
2022/08/22 01:14:51;;;;;;;11.43;3.90;;;17.60;99.90;;;;;;5035117;28;20053;-67
2022/08/22 01:17:37;;;;;;;8.87;3.63;;;17.60;99.90;;;;;;5034463;28;20490;-68
2022/08/22 01:20:28;;;;;;;8.70;3.87;;;17.50;99.90;;;;;;5035126;28;20401;-68
2022/08/22 01:23:42;;;;;;;8.83;3.70;;;17.50;99.90;;;;;;5034629;28;20089;-68
2022/08/22 01:26:26;;;;;;;8.47;3.73;;;17.50;99.90;;;;;;5017227;28;20370;-68
2022/08/22 01:29:10;;;;;;;10.15;4.03;;;17.50;99.90;;;;;;5034463;28;20512;-68
2022/08/22 01:31:39;;;;;;;8.40;3.70;;;17.40;99.90;;;;;;5016802;28;20132;-68
2022/08/22 01:34:05;;;;;;;9.13;3.33;;;17.30;99.90;;;;;;5034411;28;20064;-68
2022/08/22 01:37:04;;;;;;;9.17;3.87;;;17.30;99.90;;;;;;5034400;28;20057;-68
2022/08/22 01:39:39;;;;;;;7.67;3.50;;;17.30;99.90;;;;;;5035478;28;20060;-68
2022/08/22 01:42:33;;;;;;;8.05;4.15;;;17.30;99.90;;;;;;5034218;28;20092;-68
2022/08/22 01:45:02;;;;;;;8.87;4.13;;;17.30;99.90;;;;;;5034941;28;20049;-68
2022/08/22 01:47:53;;;;;;;7.90;3.57;;;17.20;99.90;;;;;;5016600;28;20363;-69
2022/08/22 01:50:38;;;;;;;9.47;3.60;;;17.10;99.90;;;;;;5034211;28;20119;-68
2022/08/22 01:53:17;;;;;;;8.27;3.42;;;17.10;99.90;;;;;;5016988;28;20058;-69
2022/08/22 01:56:12;;;;;;;9.43;3.77;;;17.10;99.90;;;;;;5034202;28;20046;-69
2022/08/22 01:59:00;;;;;;;8.60;4.27;;;17.00;99.90;;;;;;5025613;28;20589;-68
2022/08/22 02:01:31;;;;;;;8.53;4.03;;;17.00;99.90;;;;;;5034793;28;20444;-68
2022/08/22 02:04:29;;;;;;;8.20;3.77;;;17.00;99.90;;;;;;5033857;28;20057;-68
2022/08/22 02:07:04;;;;;;;8.37;3.40;;;16.90;99.90;;;;;;5034611;28;20124;-69
2022/08/22 02:10:11;;;;;;;8.73;4.10;;;16.90;99.90;;;;;;5034397;28;20382;-69
2022/08/22 02:12:54;;;;;;;11.23;3.97;;;16.90;99.90;;;;;;5033432;28;20065;-68
2022/08/22 02:15:27;;;;;;;9.53;3.57;;;16.90;99.90;;;;;;5033798;28;20049;-68
2022/08/22 02:18:16;;;;;;;7.77;3.67;;;16.80;99.90;;;;;;5034263;28;20055;-68
2022/08/22 02:20:55;;;;;;;11.47;3.90;;;16.80;99.90;;;;;;5033966;28;20049;-68
2022/08/22 02:23:44;;;;;;;8.87;3.87;;;16.90;99.90;;;;;;5033940;28;20057;-68
2022/08/22 02:26:38;;;;;;;8.33;4.13;;;16.90;99.90;;;;;;5015606;28;20045;-68
2022/08/22 02:29:17;;;;;;;10.40;4.47;;;16.80;99.90;;;;;;5016379;28;20053;-68
2022/08/22 02:32:18;;;;;;;7.33;3.70;;;16.70;99.90;;;;;;5033247;28;20550;-68
2022/08/22 02:34:58;;;;;;;8.43;4.43;;;16.70;99.90;;;;;;4989578;28;20076;-68
2022/08/22 02:37:52;;;;;;;11.40;3.90;;;16.60;99.90;;;;;;5033495;28;20085;-68
2022/08/22 02:40:40;;;;;;;9.37;4.37;;;16.60;99.90;;;;;;5033478;28;20053;-68
2022/08/22 02:43:19;;;;;;;10.27;4.10;;;16.70;99.90;;;;;;5033389;28;20084;-68
2022/08/22 02:46:02;;;;;;;8.23;4.10;;;16.70;99.90;;;;;;5033839;28;20049;-68
2022/08/22 02:48:49;;;;;;;7.17;4.20;;;16.70;99.90;;;;;;5033076;28;20057;-68
2022/08/22 02:51:28;;;;;;;8.73;3.60;;;16.70;99.90;;;;;;5034094;28;20413;-68
2022/08/22 02:53:56;;;;;;;9.87;3.60;;;16.60;99.90;;;;;;5033850;28;20049;-68
2022/08/22 02:56:33;;;;;;;6.43;3.87;;;16.50;99.90;;;;;;5032948;28;20045;-68
2022/08/22 02:59:30;;;;;;;8.23;3.97;;;16.50;99.90;;;;;;5033260;28;20049;-68
2022/08/22 03:01:57;;;;;;;10.37;4.93;;;16.50;99.90;;;;;;5033555;28;20056;-68
2022/08/22 03:04:29;;;;;;;8.93;3.90;;;16.50;99.90;;;;;;5033155;28;20048;-68
2022/08/22 03:07:00;;;;;;;10.23;4.77;;;16.40;99.90;;;;;;5033165;28;20077;-68
2022/08/22 03:09:49;;;;;;;10.40;4.00;;;16.40;99.90;;;;;;5034954;28;20505;-68
2022/08/22 03:12:33;;;;;;;11.20;5.10;;;16.40;99.90;;;;;;5037103;28;20080;-68
2022/08/22 03:15:27;;;;;;;10.43;4.37;;;16.40;99.90;;;;;;5037599;28;20095;-68
2022/08/22 03:18:23;;;;;;;8.67;4.33;;;16.40;99.90;;;;;;5036670;28;20111;-68
2022/08/22 03:21:22;;;;;;;9.03;5.00;;;16.30;99.90;;;;;;5035643;28;20061;-68
2022/08/22 03:24:08;;;;;;;13.60;5.50;;;16.20;99.90;;;;;;5037712;28;20045;-68
2022/08/22 03:27:02;;;;;;;11.67;5.27;;;16.10;99.90;;;;;;5036790;28;20430;-69
2022/08/22 03:29:43;;;;;;;10.50;4.90;;;16.10;99.90;;;;;;5036849;28;20056;-68
2022/08/22 03:32:18;;;;;;;9.73;4.87;;;16.20;99.90;;;;;;5037336;28;20096;-68
2022/08/22 03:34:58;;;;;;;7.23;4.10;;;16.20;99.90;;;;;;5037261;28;20436;-69
2022/08/22 03:37:35;;;;;;;10.03;4.70;;;16.10;99.90;;;;;;5036687;28;20050;-68
2022/08/22 03:40:21;;;;;;;9.97;3.93;;;16.20;99.90;;;;;;5036640;28;20085;-68
2022/08/22 03:43:08;;;;;;;9.40;4.60;;;16.20;99.90;;;;;;5036533;28;20045;-68
2022/08/22 03:45:39;;;;;;;9.20;4.20;;;16.20;99.90;;;;;;5036951;28;20395;-68
2022/08/22 03:48:36;;;;;;;10.07;4.97;;;16.20;99.90;;;;;;5036515;28;20084;-68
2022/08/22 03:51:50;;;;;;;8.67;4.80;;;16.20;99.90;;;;;;5037230;28;20053;-68
2022/08/22 03:54:34;;;;;;;7.87;4.70;;;16.10;99.90;;;;;;4966123;28;20090;-69
2022/08/22 03:57:05;;;;;;;7.67;3.93;;;16.10;99.90;;;;;;5036306;28;20085;-68
2022/08/22 04:00:09;;;;;;;10.07;4.53;;;16.10;99.90;;;;;;5036205;28;20053;-68
2022/08/22 04:03:03;;;;;;;8.37;4.10;;;16.00;99.90;;;;;;5036140;28;20042;-68
2022/08/22 04:05:49;;;;;;;11.53;4.10;;;16.00;99.90;;;;;;5036050;28;20366;-68
2022/08/22 04:08:17;;;;;;;9.15;3.95;;;16.00;99.90;;;;;;5036603;28;20049;-69
2022/08/22 04:11:11;;;;;;;10.37;4.50;;;15.80;99.90;;;;;;5035988;28;20045;-68
2022/08/22 04:14:18;;;;;;;8.03;3.67;;;15.90;99.90;;;;;;5036018;28;20053;-68
2022/08/22 04:16:54;;;;;;;7.13;3.33;;;15.90;99.90;;;;;;5025103;28;20285;-68
2022/08/22 04:19:37;;;;;;;7.03;3.33;;;15.90;99.90;;;;;;5036448;28;20280;-68
2022/08/22 04:22:39;;;;;;;10.23;4.37;;;15.90;99.90;;;;;;5035326;28;20779;-68
2022/08/22 04:25:15;;;;;;;8.07;3.50;;;15.90;99.90;;;;;;5036839;28;20373;-68
2022/08/22 04:27:54;;;;;;;7.47;3.30;;;15.90;99.90;;;;;;5036574;28;20042;-68
2022/08/22 04:30:32;;;;;;;7.93;3.70;;;15.90;99.90;;;;;;5035949;28;20292;-68
2022/08/22 04:33:36;;;;;;;8.50;3.07;;;15.80;99.90;;;;;;5035672;28;20280;-68
2022/08/22 04:36:25;;;;;;;6.83;3.20;;;15.90;99.90;;;;;;4991815;28;20288;-68
2022/08/22 04:39:17;;;;;;;8.10;3.27;;;15.80;99.90;;;;;;5035577;28;20291;-68
2022/08/22 04:42:03;;;;;;;7.63;3.60;;;15.80;99.90;;;;;;5035488;28;20761;-68
2022/08/22 04:44:57;;;;;;;7.67;3.47;;;15.70;99.90;;;;;;5035468;28;20407;-68
2022/08/22 04:47:29;;;;;;;7.83;3.77;;;15.80;99.90;;;;;;5036144;28;20390;-68
2022/08/22 04:50:01;;;;;;;9.03;3.47;;;15.80;99.90;;;;;;5035103;28;20120;-68
2022/08/22 04:52:46;;;;;;;8.27;3.77;;;15.80;99.90;;;;;;5035220;28;20410;-69
2022/08/22 04:55:41;;;;;;;8.07;3.60;;;15.80;99.90;;;;;;5035154;28;20338;-69
2022/08/22 04:58:07;;;;;;;8.82;3.22;;;15.80;99.90;;;;;;5035239;28;20049;-68
2022/08/22 05:01:05;;;;;;;8.00;4.00;;;15.80;99.90;;;;;;5034731;28;20056;-68
2022/08/22 05:03:36;;;;;;;8.03;3.47;;;15.90;99.90;;;;;;4966097;28;20053;-68
2022/08/22 05:06:04;;;;;;;9.00;3.87;;;15.90;99.90;;;;;;5035727;28;20072;-68
2022/08/22 05:08:34;;;;;;;8.37;4.50;;;15.90;99.90;;;;;;5034954;28;20554;-68
2022/08/22 05:11:04;;;;;;;11.03;4.33;;;16.00;99.90;;;;;;5035235;28;20750;-68
2022/08/22 05:13:47;;;;;;;7.23;3.90;;;16.00;99.90;;;;;;5034749;28;20446;-69
2022/08/22 05:16:18;;;;;;;8.93;4.13;;;16.00;99.90;;;;;;5035088;28;20268;-68
2022/08/22 05:18:50;;;;;;;9.03;4.10;;;16.00;99.90;;;;;;5017830;28;20651;-68
2022/08/22 05:21:21;;;;;;;8.17;4.13;;;16.00;99.90;;;;;;5017448;28;20049;-69
2022/08/22 05:24:15;;;;;;;9.73;3.80;;;16.10;99.90;;;;;;5034992;28;20049;-68
2022/08/22 05:26:45;;;;;;;7.97;3.37;;;16.10;99.90;;;;;;5030393;28;20348;-68
2022/08/22 05:29:15;;;;;;;7.53;3.80;;;16.20;99.90;;;;;;5034494;28;20107;-68
2022/08/22 05:31:53;;;;;;;9.03;3.90;;;16.20;99.90;;;;;;5034619;28;20056;-68
2022/08/22 05:34:22;;;;;;;9.63;4.23;;;16.20;99.90;;;;;;5034193;28;20127;-68
2022/08/22 05:36:59;;;;;;;9.03;3.97;;;16.20;99.90;;;;;;5034389;28;20134;-69
2022/08/22 05:39:27;;;;;;;10.77;3.93;;;16.20;99.90;;;;;;5034974;28;20045;-69
2022/08/22 05:41:55;;;;;;;8.73;4.43;;;16.20;99.90;;;;;;5034349;28;20046;-69
2022/08/22 05:44:29;;;;;;;11.03;4.50;;;16.40;99.90;;;;;;5034230;28;20049;-69
2022/08/22 05:47:03;;;;;;;9.33;4.07;;;16.50;99.90;;;;;;5017340;28;20464;-69
2022/08/22 05:49:38;;;;;;;12.27;4.40;;;16.60;99.90;;;;;;5034029;28;20062;-69
2022/08/22 05:52:38;;;;;;;9.03;4.10;;;16.60;99.90;;;;;;5034996;28;20073;-69
2022/08/22 05:55:16;;;;;;;11.43;4.40;;;16.70;99.90;;;;;;5034092;28;20048;-69
2022/08/22 05:57:47;;;;;;;8.87;4.30;;;16.80;99.90;;;;;;5034853;28;20057;-69
2022/08/22 06:00:27;;;;;;;12.57;4.30;;;16.90;99.90;;;;;;5034575;28;20042;-69
2022/08/22 06:03:33;;;;;;;9.70;4.37;;;17.00;99.90;;;;;;5016417;28;20088;-69
2022/08/22 06:06:08;;;;;;;14.23;4.90;;;17.10;99.90;;;;;;5033807;28;20432;-69
2022/08/22 06:08:44;;;;;;;13.48;4.72;;;17.30;99.90;;;;;;5034634;28;20045;-69
2022/08/22 06:11:44;;;;;;;11.40;5.30;;;17.30;99.90;;;;;;5033872;28;20068;-69
2022/08/22 06:14:40;;;;;;;11.33;5.13;;;17.40;99.90;;;;;;5029021;28;20493;-69
2022/08/22 06:17:05;;;;;;;;;;;17.60;99.90;;;;;;5034992;28;20048;-69
2022/08/22 06:19:39;;;;;;;15.17;6.47;;;17.60;99.90;;;;;;5033698;28;20297;-70
2022/08/22 06:22:05;;;;;;;30.30;7.03;;;17.80;99.90;;;;;;5033830;28;20461;-70
2022/08/22 06:24:35;;;;;;;29.53;7.47;;;17.90;99.90;;;;;;5033508;28;20118;-70
2022/08/22 06:27:07;;;;;;;17.43;5.53;;;17.80;99.90;;;;;;5033520;28;20469;-70
2022/08/22 06:29:38;;;;;;;10.00;5.00;;;17.90;99.90;;;;;;5016113;28;20488;-70
2022/08/22 06:32:17;;;;;;;16.87;6.03;;;17.90;99.90;;;;;;5033826;28;20444;-70
2022/08/22 06:34:45;;;;;;;17.97;5.40;;;17.80;99.90;;;;;;5034287;28;20065;-70
2022/08/22 06:37:29;;;;;;;9.27;4.93;;;17.80;99.90;;;;;;5033732;28;20116;-70
2022/08/22 06:39:55;;;;;;;10.77;4.73;;;17.80;99.90;;;;;;5034251;28;20354;-70
2022/08/22 06:42:27;;;;;;;12.13;5.70;;;17.80;99.90;;;;;;5033674;28;20128;-70
2022/08/22 06:45:01;;;;;;;12.63;5.03;;;17.80;99.90;;;;;;5039595;28;20056;-69
2022/08/22 06:47:47;;;;;;;17.15;5.65;;;17.80;99.90;;;;;;5040771;28;20053;-70
2022/08/22 06:50:38;;;;;;;14.50;5.70;;;17.80;99.90;;;;;;5025616;28;20107;-70
2022/08/22 06:53:09;;;;;;;9.93;5.27;;;17.90;99.90;;;;;;5039874;28;20477;-70
2022/08/22 06:55:39;;;;;;;9.93;4.23;;;18.00;99.90;;;;;;5022714;28;20041;-70
2022/08/22 06:58:12;;;;;;;12.93;4.60;;;18.00;99.90;;;;;;5022074;28;20053;-70
2022/08/22 07:00:41;;;;;;;11.47;4.53;;;18.00;99.90;;;;;;5040415;28;20053;-70
2022/08/22 07:03:17;;;;;;;11.43;4.20;;;18.00;99.90;;;;;;5039877;28;20053;-70
2022/08/22 07:05:43;;;;;;;9.67;4.47;;;18.10;99.90;;;;;;5040510;28;20045;-70
2022/08/22 07:08:14;;;;;;;12.50;4.40;;;18.10;99.90;;;;;;5040237;28;20045;-70
2022/08/22 07:10:54;;;;;;;12.53;4.10;;;18.20;99.90;;;;;;5039753;28;20041;-70
2022/08/22 07:13:20;;;;;;;11.23;4.63;;;18.20;99.90;;;;;;5039494;28;20497;-70
2022/08/22 07:15:54;;;;;;;11.10;4.40;;;18.30;99.90;;;;;;5039621;28;20128;-70
2022/08/22 07:18:23;;;;;;;15.60;4.37;;;18.40;99.90;;;;;;5039775;28;20060;-70
2022/08/22 07:20:55;;;;;;;12.83;4.57;;;18.40;99.90;;;;;;5039674;28;20041;-70
2022/08/22 07:23:35;;;;;;;7.73;3.60;;;18.50;99.90;;;;;;5039377;28;20505;-69
2022/08/22 07:26:26;;;;;;;14.37;4.80;;;18.60;99.90;;;;;;5039644;28;20060;-70
2022/08/22 07:29:07;;;;;;;13.20;4.00;;;18.80;99.90;;;;;;5039652;28;20107;-70
2022/08/22 07:31:43;;;;;;;12.87;3.97;;;19.00;99.90;;;;;;5040130;28;20049;-70
2022/08/22 07:34:34;;;;;;;11.37;4.10;;;19.30;99.90;;;;;;5021912;28;20109;-70
2022/08/22 07:37:18;;;;;;;12.90;4.93;;;19.50;99.90;;;;;;5040178;28;20124;-70
2022/08/22 07:40:02;;;;;;;12.33;4.80;;;19.60;99.90;;;;;;5039753;28;20041;-70
2022/08/22 07:42:42;;;;;;;12.60;4.13;;;19.80;99.90;;;;;;5040317;28;20049;-69
2022/08/22 07:45:19;;;;;;;12.17;4.67;;;19.90;99.90;;;;;;5021560;28;20045;-69
2022/08/22 07:48:13;;;;;;;10.40;3.77;;;20.00;99.90;;;;;;5022380;28;20403;-69
2022/08/22 07:50:59;;;;;;;12.63;4.57;;;20.30;99.90;;;;;;5040096;28;20053;-69
2022/08/22 07:53:34;;;;;;;16.30;4.93;;;20.50;99.90;;;;;;5023897;28;20470;-69
2022/08/22 07:56:02;;;;;;;16.45;4.80;;;20.80;99.90;;;;;;5036988;28;20449;-69
2022/08/22 07:58:32;;;;;;;18.00;4.73;;;20.80;99.90;;;;;;5018580;28;20044;-70
2022/08/22 08:00:59;;;;;;;11.80;4.60;;;20.80;99.90;;;;;;5036224;28;20098;-70
2022/08/22 08:03:28;;;;;;;13.37;5.33;;;20.80;99.90;;;;;;5036149;28;20128;-70
2022/08/22 08:05:54;;;;;;;14.97;5.40;;;20.90;99.90;;;;;;5036047;28;20487;-70
2022/08/22 08:08:30;;;;;;;11.53;4.60;;;21.10;99.90;;;;;;5036042;28;20049;-70
2022/08/22 08:10:59;;;;;;;14.77;5.70;;;21.10;99.90;;;;;;5018774;28;20489;-70
2022/08/22 08:13:36;;;;;;;11.87;5.23;;;21.20;99.90;;;;;;5035675;28;20551;-70
2022/08/22 08:16:05;;;;;;;14.40;5.40;;;21.30;99.90;;;;;;5019441;28;20061;-69
2022/08/22 08:18:33;;;;;;;13.13;4.60;;;21.40;99.90;;;;;;5035921;28;20500;-68
2022/08/22 08:21:05;;;;;;;15.87;6.13;;;21.60;99.90;;;;;;5035898;28;20095;-69
2022/08/22 08:23:41;;;;;;;15.23;5.77;;;21.60;99.90;;;;;;5036175;28;20042;-69
2022/08/22 08:26:14;;;;;;;16.63;5.63;;;21.70;99.90;;;;;;5035790;28;20042;-68
2022/08/22 08:28:45;;;;;;;15.17;5.33;;;21.80;99.90;;;;;;5035621;28;20108;-69
2022/08/22 08:31:19;;;;;;;12.67;5.60;;;22.00;99.90;;;;;;5034319;28;20089;-69
2022/08/22 08:33:49;;;;;;;11.32;4.22;;;22.20;99.90;;;;;;5034777;28;20089;-69
2022/08/22 08:36:22;;;;;;;9.47;3.93;;;22.30;99.90;;;;;;5034192;28;20168;-69
2022/08/22 08:38:51;;;;;;;11.07;3.97;;;22.20;99.90;;;;;;5035206;28;20100;-69
2022/08/22 08:41:44;;;;;;;11.03;4.03;;;22.10;99.90;;;;;;5018734;28;20140;-68
2022/08/22 08:44:42;;;;;;;10.47;3.40;;;22.00;99.90;;;;;;5035373;28;20060;-68
2022/08/22 08:47:31;;;;;;;13.60;3.33;;;21.90;99.90;;;;;;5036165;28;20049;-68
2022/08/22 08:50:06;;;;;;;9.07;3.73;;;21.80;99.90;;;;;;5036035;28;20114;-68
2022/08/22 08:52:32;;;;;;;;;;;21.80;99.90;;;;;;5036354;28;20061;-68
2022/08/22 08:55:22;;;;;;;15.67;3.77;;;21.70;99.90;;;;;;5035033;28;20015;-68
2022/08/22 08:58:16;;;;;;;12.73;3.67;;;21.80;99.90;;;;;;5017493;28;20049;-68
2022/08/22 09:00:41;;;;;;;10.50;3.40;;;21.80;99.90;;;;;;5036032;28;20092;-69
2022/08/22 09:03:26;;;;;;;8.83;2.87;;;22.00;99.90;;;;;;5035137;28;20080;-68
2022/08/22 09:06:11;;;;;;;;;;;22.20;99.90;;;;;;5036070;28;20053;-68
2022/08/22 09:08:52;;;;;;;9.63;2.77;;;22.20;99.90;;;;;;5017785;28;20329;-69
2022/08/22 09:11:56;;;;;;;10.30;2.83;;;22.30;99.90;;;;;;5035221;28;20049;-73
2022/08/22 09:14:25;;;;;;;10.17;2.97;;;22.40;99.90;;;;;;4994061;28;20067;-73
2022/08/22 09:17:27;;;;;;;10.93;3.43;;;22.40;99.90;;;;;;5017351;28;20133;-72
2022/08/22 09:20:11;;;;;;;9.93;3.07;;;22.30;99.90;;;;;;5034833;28;20041;-73
2022/08/22 09:23:29;;;;;;;9.20;2.73;;;22.20;99.90;;;;;;5035051;28;20403;-73
2022/08/22 09:26:13;;;;;;;9.73;3.50;;;22.10;99.90;;;;;;5029576;28;20049;-72
2022/08/22 09:28:47;;;;;;;9.37;2.80;;;21.90;99.50;;;;;;5035162;28;20060;-73
2022/08/22 09:31:27;;;;;;;8.90;2.90;;;21.90;99.90;;;;;;5034666;28;20049;-73
2022/08/22 09:34:12;;;;;;;9.57;3.17;;;22.00;98.60;;;;;;5034385;28;20049;-72
2022/08/22 09:36:53;;;;;;;6.93;2.50;;;22.10;99.30;;;;;;5034840;28;20045;-74
2022/08/22 09:39:41;;;;;;;7.47;2.20;;;22.10;98.80;;;;;;5017823;28;20358;-69
2022/08/22 09:42:22;;;;;;;9.10;2.63;;;22.20;95.00;;;;;;5034464;28;20057;-69
2022/08/22 09:45:24;;;;;;;10.27;2.60;;;22.20;96.70;;;;;;5034273;28;20056;-76
2022/08/22 09:47:58;;;;;;;11.47;2.53;;;22.20;97.30;;;;;;5033907;28;20049;-69
2022/08/22 09:50:41;;;;;;;9.48;3.50;;;22.20;97.70;;;;;;5034121;28;20124;-68
2022/08/22 09:53:09;;;;;;;11.40;2.47;;;22.20;97.90;;;;;;5016429;28;20528;-69
2022/08/22 09:56:03;;;;;;;9.27;2.80;;;22.20;98.00;;;;;;5034827;28;20053;-69
2022/08/22 09:58:45;;;;;;;8.87;3.10;;;22.30;97.50;;;;;;5034619;28;20049;-69
2022/08/22 10:01:22;;;;;;;11.80;2.57;;;22.30;96.60;;;;;;5033681;28;20049;-69
2022/08/22 10:04:06;;;;;;;10.23;2.90;;;22.20;96.50;;;;;;5033973;28;20053;-68
2022/08/22 10:06:51;;;;;;;8.63;2.50;;;22.20;95.90;;;;;;5033881;28;20084;-69
2022/08/22 10:09:27;;;;;;;7.40;2.33;;;22.20;96.30;;;;;;5034451;28;20371;-68
2022/08/22 10:12:03;;;;;;;7.57;2.10;;;22.20;94.60;;;;;;5034377;28;20439;-68
2022/08/22 10:15:00;;;;;;;7.33;2.13;;;22.20;93.50;;;;;;5034623;28;20373;-69
2022/08/22 10:17:37;;;;;;;8.17;2.20;;;22.30;92.20;;;;;;4964489;28;20444;-68
2022/08/22 10:20:36;;;;;;;8.27;2.43;;;22.30;92.10;;;;;;5016072;28;20136;-69
2022/08/22 10:23:19;;;;;;;7.77;2.83;;;22.30;92.20;;;;;;5019042;28;20091;-68
2022/08/22 10:25:52;;;;;;;12.70;3.03;;;22.30;93.80;;;;;;5034476;28;20045;-69
2022/08/22 10:28:44;;;;;;;8.63;2.60;;;22.30;93.90;;;;;;5033631;28;20133;-68
2022/08/22 10:31:31;;;;;;;9.37;2.70;;;22.40;94.40;;;;;;5033643;28;20115;-69
2022/08/22 10:34:05;;;;;;;9.43;2.77;;;22.40;92.70;;;;;;5034116;28;20393;-69
2022/08/22 10:36:36;;;;;;;;;;;22.40;94.20;;;;;;5034584;28;20045;-69
2022/08/22 10:39:06;;;;;;;7.60;2.33;;;22.50;93.10;;;;;;5034073;28;19970;-69
2022/08/22 10:41:58;;;;;;;10.20;2.70;;;22.60;93.90;;;;;;5033466;28;20503;-68
2022/08/22 10:44:42;;;;;;;9.17;2.97;;;22.70;92.50;;;;;;5033558;28;20100;-68
2022/08/22 10:47:15;;;;;;;8.87;2.43;;;22.80;93.50;;;;;;5033412;28;20048;-69
2022/08/22 10:50:09;;;;;;;8.63;2.73;;;22.80;92.90;;;;;;5034039;28;20065;-68
2022/08/22 10:53:28;;;;;;;9.07;2.47;;;22.90;91.00;;;;;;5033691;28;20049;-68
2022/08/22 10:55:40;;;;;;;11.80;2.97;;;22.90;91.50;;;;;;5033053;28;20052;-69
2022/08/22 10:58:21;;;;;;;7.93;2.67;;;23.00;92.20;;;;;;5033440;28;20551;-69
2022/08/22 11:00:57;;;;;;;8.93;2.93;;;22.90;91.10;;;;;;5033314;28;20197;-70
2022/08/22 11:03:59;;;;;;;11.00;3.23;;;23.00;91.60;;;;;;5016093;28;20049;-68
2022/08/22 11:06:47;;;;;;;7.00;2.33;;;23.10;91.80;;;;;;5033940;28;20048;-68
2022/08/22 11:09:28;;;;;;;8.53;3.00;;;23.20;91.80;;;;;;5033220;28;20049;-68
2022/08/22 11:12:18;;;;;;;7.70;2.87;;;23.30;91.60;;;;;;5016569;28;20053;-68
2022/08/22 11:15:17;;;;;;;7.37;2.77;;;23.40;91.00;;;;;;5033221;28;20042;-67
2022/08/22 11:18:04;;;;;;;10.67;3.33;;;23.50;90.00;;;;;;5015711;28;20049;-67
2022/08/22 11:20:38;;;;;;;10.07;2.93;;;23.50;90.20;;;;;;5033429;28;20132;-69
2022/08/22 11:23:24;;;;;;;9.25;2.70;;;23.60;90.60;;;;;;5033876;28;20052;-69
2022/08/22 11:26:14;;;;;;;8.17;2.30;;;23.50;89.40;;;;;;5033298;28;20494;-69
2022/08/22 11:28:50;;;;;;;7.07;2.60;;;23.50;89.80;;;;;;5033081;28;20049;-69
2022/08/22 11:31:26;;;;;;;11.90;2.60;;;23.40;90.50;;;;;;5036979;28;20116;-69
2022/08/22 11:34:02;;;;;;;10.93;2.97;;;23.30;91.10;;;;;;5037388;28;20088;-68
2022/08/22 11:36:36;;;;;;;9.73;2.80;;;23.30;91.00;;;;;;5037604;28;20037;-69
2022/08/22 11:39:14;;;;;;;8.82;3.38;;;23.30;91.50;;;;;;5037405;28;20072;-69
2022/08/22 11:41:55;;;;;;;10.03;2.90;;;23.20;91.50;;;;;;5036287;28;20497;-69
2022/08/22 11:44:52;;;;;;;11.20;2.80;;;23.00;91.80;;;;;;5036376;28;20053;-68
2022/08/22 11:47:22;;;;;;;11.13;3.40;;;23.00;92.60;;;;;;5019012;28;20139;-68
2022/08/22 11:49:56;;;;;;;7.47;2.67;;;23.00;92.50;;;;;;5036795;28;20143;-68
2022/08/22 11:52:32;;;;;;;7.35;2.50;;;22.90;92.40;;;;;;5036403;28;20477;-68
2022/08/22 11:55:15;;;;;;;10.10;3.50;;;22.90;92.50;;;;;;5037196;28;20131;-68
2022/08/22 11:57:56;;;;;;;8.83;2.90;;;22.90;91.60;;;;;;5036354;28;20061;-68
2022/08/22 12:00:25;;;;;;;8.00;2.73;;;22.80;92.90;;;;;;5036333;28;20049;-67
2022/08/22 12:03:28;;;;;;;7.63;2.57;;;22.80;93.70;;;;;;5036205;28;20057;-73
2022/08/22 12:06:26;;;;;;;10.33;2.83;;;22.80;94.00;;;;;;5001863;28;20045;-74
2022/08/22 12:09:06;;;;;;;8.37;2.90;;;22.80;94.10;;;;;;5036691;28;20045;-74
2022/08/22 12:11:54;;;;;;;8.40;2.73;;;22.80;94.20;;;;;;5036418;28;20136;-74
2022/08/22 12:14:33;;;;;;;8.30;2.70;;;22.80;93.40;;;;;;5036335;28;20049;-74
2022/08/22 12:17:10;;;;;;;7.60;2.50;;;22.90;94.40;;;;;;5035998;28;20049;-74
2022/08/22 12:19:55;;;;;;;10.73;3.00;;;23.00;94.30;;;;;;5035993;28;20095;-75
2022/08/22 12:22:46;;;;;;;9.13;3.17;;;23.20;94.00;;;;;;5035927;28;20111;-73
2022/08/22 12:25:11;;;;;;;12.67;3.33;;;23.20;93.60;;;;;;5036028;28;20049;-73
2022/08/22 12:28:04;;;;;;;9.43;3.27;;;23.30;94.00;;;;;;5035785;28;20505;-73
2022/08/22 12:30:50;;;;;;;9.73;2.90;;;23.30;93.60;;;;;;5036585;28;20056;-74
2022/08/22 12:33:54;;;;;;;14.13;3.50;;;23.30;93.60;;;;;;5034913;28;20053;-69
2022/08/22 12:36:38;;;;;;;11.20;2.93;;;23.30;94.00;;;;;;5031815;28;20096;-69
2022/08/22 12:39:31;;;;;;;9.00;3.20;;;23.30;93.30;;;;;;5036533;28;20041;-69
2022/08/22 12:42:21;;;;;;;6.80;2.90;;;23.20;92.60;;;;;;5035198;28;20136;-70
2022/08/22 12:45:19;;;;;;;10.77;2.63;;;23.10;92.70;;;;;;5036355;28;20112;-70
2022/08/22 12:48:00;;;;;;;7.97;2.73;;;23.10;92.90;;;;;;5035216;28;20045;-70
2022/08/22 12:50:53;;;;;;;7.80;2.70;;;23.10;92.70;;;;;;5035311;28;20046;-69
2022/08/22 12:53:21;;;;;;;9.67;3.00;;;23.10;92.50;;;;;;5035884;28;20132;-70
2022/08/22 12:56:04;;;;;;;6.63;2.33;;;23.00;92.80;;;;;;5035513;28;20381;-69
2022/08/22 12:59:14;;;;;;;9.63;2.70;;;23.00;93.00;;;;;;5035728;28;20049;-70
2022/08/22 13:01:49;;;;;;;10.47;2.97;;;23.00;93.10;;;;;;5035177;28;20046;-70
2022/08/22 13:04:27;;;;;;;10.20;2.90;;;23.10;93.00;;;;;;5035066;28;20042;-70
2022/08/22 13:07:01;;;;;;;8.43;3.27;;;23.20;92.70;;;;;;5035519;28;20172;-70
2022/08/22 13:09:34;;;;;;;10.18;3.05;;;23.20;92.40;;;;;;5035524;28;20053;-69
2022/08/22 13:12:25;;;;;;;11.53;3.30;;;23.30;92.30;;;;;;5035475;28;20045;-70
2022/08/22 13:14:59;;;;;;;7.80;2.57;;;23.40;91.50;;;;;;5035673;28;20535;-69
2022/08/22 13:17:26;;;;;;;10.52;3.03;;;23.60;91.10;;;;;;5034759;28;20049;-69
2022/08/22 13:19:58;;;;;;;8.67;2.97;;;23.70;89.80;;;;;;5034726;28;20111;-69
2022/08/22 13:22:28;;;;;;;8.50;2.87;;;23.70;87.90;;;;;;5034652;28;20140;-69
2022/08/22 13:25:13;;;;;;;6.00;2.63;;;23.70;87.40;;;;;;5034637;28;20049;-70
2022/08/22 13:27:49;;;;;;;10.10;2.43;;;23.70;86.50;;;;;;5035428;28;20416;-70
2022/08/22 13:30:37;;;;;;;9.07;2.40;;;23.70;85.60;;;;;;5034560;28;20053;-69
2022/08/22 13:33:13;;;;;;;7.37;2.67;;;23.60;85.10;;;;;;5035243;28;20108;-70
2022/08/22 13:35:47;;;;;;;8.77;2.53;;;23.60;82.00;;;;;;5035094;28;20084;-70
2022/08/22 13:38:25;;;;;;;8.53;3.03;;;23.60;82.70;;;;;;5017086;28;20049;-73
2022/08/22 13:40:53;;;;;;;7.37;2.40;;;23.50;83.40;;;;;;5034876;28;20048;-67
2022/08/22 13:43:30;;;;;;;11.37;2.57;;;23.50;84.60;;;;;;5034245;28;20441;-75
2022/08/22 13:46:05;;;;;;;9.57;2.87;;;23.50;84.40;;;;;;5034705;28;20085;-70
2022/08/22 13:48:53;;;;;;;8.47;2.73;;;23.60;83.50;;;;;;5034264;28;20116;-69
2022/08/22 13:52:00;;;;;;;9.43;2.83;;;23.60;79.20;;;;;;5034107;28;20049;-69
2022/08/22 13:54:53;;;;;;;6.83;2.40;;;23.60;83.60;;;;;;5006750;28;20524;-69
2022/08/22 13:57:45;;;;;;;9.53;2.53;;;23.60;82.60;;;;;;5034011;28;20048;-70